createdAt,value
2023-01-10T00:02:24.111Z,11.35
2023-01-10T00:05:30.149Z,11.32
2023-01-10T00:08:35.984Z,11.29
2023-01-10T00:11:59.454Z,11.27
2023-01-10T00:15:05.840Z,11.25
2023-01-10T00:18:11.683Z,11.23
2023-01-10T00:21:19.863Z,11.22
2023-01-10T00:24:26.571Z,11.19
2023-01-10T00:27:32.640Z,11.16
2023-01-10T00:30:40.992Z,11.14
2023-01-10T00:33:47.398Z,11.09
2023-01-10T00:36:51.652Z,11.03
2023-01-10T00:39:57.350Z,10.92
2023-01-10T00:43:20.753Z,10.87
2023-01-10T00:46:26.883Z,10.75
2023-01-10T00:49:32.668Z,10.63
2023-01-10T00:52:38.427Z,10.51
2023-01-10T00:55:44.162Z,10.43
2023-01-10T00:58:49.896Z,10.38
2023-01-10T01:01:55.707Z,10.34
2023-01-10T01:05:01.645Z,10.29
2023-01-10T01:08:07.713Z,10.22
2023-01-10T01:11:13.673Z,10.16
2023-01-10T01:14:19.507Z,10.11
2023-01-10T01:17:25.276Z,10.04
2023-01-10T01:20:32.361Z,10.01
2023-01-10T01:23:38.716Z,9.97
2023-01-10T01:26:43.359Z,9.92
2023-01-10T01:29:49.218Z,9.88
2023-01-10T01:32:55.377Z,9.90
2023-01-10T01:35:59.702Z,9.91
2023-01-10T01:39:06.295Z,9.90
2023-01-10T01:42:25.850Z,9.93
2023-01-10T01:45:40.316Z,9.96
2023-01-10T01:48:46.883Z,9.98
2023-01-10T01:51:56.649Z,9.99
2023-01-10T01:55:04.255Z,9.99
2023-01-10T01:58:15.022Z,10.00
2023-01-10T02:01:22.965Z,10.02
2023-01-10T02:04:32.571Z,9.99
2023-01-10T02:07:41.375Z,9.95
2023-01-10T02:10:54.198Z,9.91
2023-01-10T02:14:01.395Z,9.92
2023-01-10T02:17:10.234Z,9.91
2023-01-10T02:20:18.648Z,9.90
2023-01-10T02:24:02.780Z,9.87
2023-01-10T02:27:20.423Z,9.83
2023-01-10T02:30:46.171Z,9.77
2023-01-10T02:33:59.005Z,9.73
2023-01-10T02:37:13.746Z,9.68
2023-01-10T02:40:28.408Z,9.62
2023-01-10T02:43:39.519Z,9.57
2023-01-10T02:46:48.072Z,9.57
2023-01-10T02:49:54.861Z,9.55
2023-01-10T02:53:06.044Z,9.54
2023-01-10T02:56:31.102Z,9.53
2023-01-10T03:00:14.589Z,9.51
2023-01-10T03:03:33.497Z,9.50
2023-01-10T03:06:51.002Z,9.49
2023-01-10T03:10:03.087Z,9.48
2023-01-10T03:13:13.262Z,9.50
2023-01-10T03:16:24.906Z,9.46
2023-01-10T03:19:34.202Z,9.49
2023-01-10T03:22:42.296Z,9.53
2023-01-10T03:25:51.643Z,9.54
2023-01-10T03:29:02.518Z,9.54
2023-01-10T03:32:12.000Z,9.54
2023-01-10T03:35:18.439Z,9.52
2023-01-10T03:38:32.784Z,9.46
2023-01-10T03:41:42.431Z,9.41
2023-01-10T03:44:59.653Z,9.42
2023-01-10T03:48:08.146Z,9.43
2023-01-10T03:51:15.492Z,9.43
2023-01-10T03:54:21.734Z,9.39
2023-01-10T03:57:28.086Z,9.37
2023-01-10T04:00:32.197Z,9.31
2023-01-10T04:03:38.007Z,9.20
2023-01-10T04:06:43.867Z,9.20
2023-01-10T04:09:49.641Z,9.14
2023-01-10T04:12:55.430Z,9.07
2023-01-10T04:16:03.056Z,9.01
2023-01-10T04:19:09.254Z,8.98
2023-01-10T04:22:15.444Z,8.93
2023-01-10T04:25:21.220Z,8.88
2023-01-10T04:28:27.150Z,8.85
2023-01-10T04:31:32.994Z,8.86
2023-01-10T04:34:39.303Z,8.84
2023-01-10T04:37:45.838Z,8.83
2023-01-10T04:40:57.868Z,8.75
2023-01-10T04:44:03.944Z,8.68
2023-01-10T04:47:09.761Z,8.65
2023-01-10T04:50:16.441Z,8.60
2023-01-10T04:53:22.932Z,8.65
2023-01-10T04:56:28.771Z,8.65
2023-01-10T04:59:34.627Z,8.67
2023-01-10T05:02:44.409Z,8.70
2023-01-10T05:05:50.359Z,8.69
2023-01-10T05:08:56.106Z,8.69
2023-01-10T05:12:02.362Z,8.69
2023-01-10T05:15:09.821Z,8.72
2023-01-10T05:18:15.847Z,8.68
2023-01-10T05:21:21.700Z,8.58
2023-01-10T05:24:27.414Z,8.53
2023-01-10T05:27:33.268Z,8.55
2023-01-10T05:30:39.031Z,8.56
2023-01-10T05:33:48.178Z,8.55
2023-01-10T05:36:53.923Z,8.51
2023-01-10T05:39:59.686Z,8.51
2023-01-10T05:43:05.634Z,8.53
2023-01-10T05:46:11.653Z,8.52
2023-01-10T05:49:17.457Z,8.51
2023-01-10T05:52:23.199Z,8.48
2023-01-10T05:55:28.977Z,8.42
2023-01-10T05:58:34.715Z,8.40
2023-01-10T06:01:40.456Z,8.41
2023-01-10T06:04:46.209Z,8.43
2023-01-10T06:07:52.176Z,8.41
2023-01-10T06:10:58.241Z,8.34
2023-01-10T06:14:04.226Z,8.30
2023-01-10T06:17:10.294Z,8.32
2023-01-10T06:20:16.743Z,8.37
2023-01-10T06:23:22.449Z,8.39
2023-01-10T06:26:28.178Z,8.44
2023-01-10T06:29:34.816Z,8.44
2023-01-10T06:32:42.501Z,8.42
2023-01-10T06:35:48.363Z,8.44
2023-01-10T06:38:54.115Z,8.42
2023-01-10T06:41:59.858Z,8.41
2023-01-10T06:45:06.582Z,8.36
2023-01-10T06:48:12.300Z,8.31
2023-01-10T06:51:20.190Z,8.35
2023-01-10T06:54:26.273Z,8.32
2023-01-10T06:57:35.470Z,8.27
2023-01-10T07:00:41.672Z,8.19
2023-01-10T07:03:48.081Z,8.12
2023-01-10T07:06:53.921Z,8.07
2023-01-10T07:09:59.997Z,8.07
2023-01-10T07:13:05.731Z,8.11
2023-01-10T07:16:14.390Z,8.17
2023-01-10T07:19:20.543Z,8.18
2023-01-10T07:22:26.564Z,8.23
2023-01-10T07:25:32.720Z,8.30
2023-01-10T07:28:39.051Z,8.36
2023-01-10T07:31:43.339Z,8.45
2023-01-10T07:34:49.270Z,8.49
2023-01-10T07:37:55.539Z,8.53
2023-01-10T07:41:02.518Z,8.50
2023-01-10T07:44:08.580Z,8.42
2023-01-10T07:47:14.439Z,8.31
2023-01-10T07:50:20.706Z,8.27
2023-01-10T07:53:25.427Z,8.30
2023-01-10T07:56:31.285Z,8.32
2023-01-10T07:59:37.153Z,8.38
2023-01-10T08:02:42.989Z,8.41
2023-01-10T08:05:49.064Z,8.41
2023-01-10T08:08:54.818Z,8.36
2023-01-10T08:12:00.904Z,8.31
2023-01-10T08:15:08.117Z,8.28
2023-01-10T08:18:14.035Z,8.20
2023-01-10T08:21:20.916Z,8.13
2023-01-10T08:24:26.747Z,8.02
2023-01-10T08:27:32.624Z,7.85
2023-01-10T08:30:38.750Z,7.73
2023-01-10T08:33:44.569Z,7.66
2023-01-10T08:36:53.096Z,7.63
2023-01-10T08:39:58.922Z,7.68
2023-01-10T08:43:06.630Z,7.75
2023-01-10T08:46:12.547Z,7.80
2023-01-10T08:49:18.577Z,7.87
2023-01-10T08:52:24.393Z,7.92
2023-01-10T08:55:31.774Z,7.98
2023-01-10T08:58:37.748Z,8.08
2023-01-10T09:01:43.586Z,8.20
2023-01-10T09:04:49.765Z,8.31
2023-01-10T09:07:59.729Z,8.40
2023-01-10T09:11:06.630Z,8.45
2023-01-10T09:14:12.372Z,8.49
2023-01-10T09:17:18.363Z,8.48
2023-01-10T09:20:24.718Z,8.43
2023-01-10T09:23:30.425Z,8.38
2023-01-10T09:26:36.267Z,8.37
2023-01-10T09:29:42.146Z,8.35
2023-01-10T09:32:52.829Z,8.32
2023-01-10T09:36:00.181Z,8.35
2023-01-10T09:39:06.047Z,8.38
2023-01-10T09:42:29.531Z,8.44
2023-01-10T09:45:43.811Z,8.50
2023-01-10T09:48:56.523Z,8.55
2023-01-10T09:52:08.820Z,8.61
2023-01-10T09:55:24.987Z,8.63
2023-01-10T09:58:33.447Z,8.64
2023-01-10T10:01:40.307Z,8.65
2023-01-10T10:04:56.928Z,8.66
2023-01-10T10:08:05.054Z,8.65
2023-01-10T10:11:36.523Z,8.66
2023-01-10T10:14:56.166Z,8.68
2023-01-10T10:18:12.377Z,8.72
2023-01-10T10:21:26.024Z,8.73
2023-01-10T10:24:48.390Z,8.74
2023-01-10T10:28:08.056Z,8.75
2023-01-10T10:31:22.968Z,8.73
2023-01-10T10:34:36.772Z,8.72
2023-01-10T10:37:46.310Z,8.67
2023-01-10T10:40:53.208Z,8.65
2023-01-10T10:44:04.963Z,8.67
2023-01-10T10:47:17.618Z,8.69
2023-01-10T10:50:32.448Z,8.72
2023-01-10T10:53:38.506Z,8.71
2023-01-10T10:56:45.508Z,8.70
2023-01-10T10:59:51.964Z,8.68
2023-01-10T11:03:02.689Z,8.68
2023-01-10T11:06:11.246Z,8.68
2023-01-10T11:09:20.273Z,8.66
2023-01-10T11:12:31.186Z,8.62
2023-01-10T11:15:43.548Z,8.61
2023-01-10T11:19:09.133Z,8.65
2023-01-10T11:22:18.931Z,8.67
2023-01-10T11:25:26.143Z,8.68
2023-01-10T11:28:35.122Z,8.71
2023-01-10T11:31:42.383Z,8.71
2023-01-10T11:34:55.058Z,8.73
2023-01-10T11:38:08.104Z,8.74
2023-01-10T11:41:31.773Z,8.78
2023-01-10T11:44:37.707Z,8.84
2023-01-10T11:47:48.080Z,8.89
2023-01-10T11:50:55.880Z,8.89
2023-01-10T11:54:03.788Z,8.88
2023-01-10T11:57:17.451Z,8.88
2023-01-10T12:00:32.402Z,8.88
2023-01-10T12:03:40.400Z,8.88
2023-01-10T12:06:49.357Z,8.89
2023-01-10T12:10:00.238Z,8.90
2023-01-10T12:13:17.522Z,8.89
2023-01-10T12:16:25.915Z,8.88
2023-01-10T12:19:32.475Z,8.87
2023-01-10T12:22:41.062Z,8.87
2023-01-10T12:25:51.472Z,8.87
2023-01-10T12:29:03.015Z,8.86
2023-01-10T12:32:15.217Z,8.85
2023-01-10T12:35:26.376Z,8.80
2023-01-10T12:38:55.379Z,8.74
2023-01-10T12:42:30.743Z,8.70
2023-01-10T12:45:43.668Z,8.65
2023-01-10T12:48:57.281Z,8.61
2023-01-10T12:52:11.735Z,8.56
2023-01-10T12:55:20.048Z,8.52
2023-01-10T12:58:29.110Z,8.52
2023-01-10T13:01:40.662Z,8.50
2023-01-10T13:04:52.574Z,8.50
2023-01-10T13:08:05.945Z,8.52
2023-01-10T13:11:17.209Z,8.54
2023-01-10T13:14:28.810Z,8.58
2023-01-10T13:17:42.013Z,8.63
2023-01-10T13:20:50.045Z,8.68
2023-01-10T13:23:59.698Z,8.71
2023-01-10T13:27:06.639Z,8.74
2023-01-10T13:30:29.311Z,8.73
2023-01-10T13:33:41.384Z,8.74
2023-01-10T13:36:52.480Z,8.76
2023-01-10T13:40:06.659Z,8.80
2023-01-10T13:43:47.426Z,8.83
2023-01-10T13:46:53.573Z,8.89
2023-01-10T13:49:59.328Z,8.92
2023-01-10T13:53:35.793Z,8.93
2023-01-10T13:56:43.375Z,8.97
2023-01-10T14:00:23.717Z,8.97
2023-01-10T14:03:50.983Z,8.98
2023-01-10T14:06:59.457Z,8.95
2023-01-10T14:10:08.605Z,8.95
2023-01-10T14:13:23.764Z,8.97
2023-01-10T14:16:36.712Z,9.00
2023-01-10T14:19:43.795Z,9.03
2023-01-10T14:23:03.516Z,9.07
2023-01-10T14:26:16.276Z,9.10
2023-01-10T14:29:22.837Z,9.13
2023-01-10T14:32:40.836Z,9.13
2023-01-10T14:35:51.573Z,9.15
2023-01-10T14:39:01.081Z,9.16
2023-01-10T14:42:14.268Z,9.19
2023-01-10T14:45:30.748Z,9.21
2023-01-10T14:48:42.218Z,9.23
2023-01-10T14:51:50.573Z,9.24
2023-01-10T14:55:07.639Z,9.25
2023-01-10T14:58:19.867Z,9.26
2023-01-10T15:01:31.799Z,9.28
2023-01-10T15:04:39.075Z,9.27
2023-01-10T15:07:44.995Z,9.24
2023-01-10T15:10:54.255Z,9.21
2023-01-10T15:14:07.581Z,9.20
2023-01-10T15:17:20.530Z,9.17
2023-01-10T15:20:27.258Z,9.14
2023-01-10T15:23:39.262Z,9.09
2023-01-10T15:26:45.072Z,9.07
2023-01-10T15:29:51.077Z,9.09
2023-01-10T15:32:59.011Z,9.11
2023-01-10T15:36:09.321Z,9.13
2023-01-10T15:39:22.136Z,9.13
2023-01-10T15:42:28.394Z,9.12
2023-01-10T15:45:39.206Z,9.12
2023-01-10T15:48:54.793Z,9.08
2023-01-10T15:51:59.518Z,9.05
2023-01-10T15:55:36.195Z,9.02
2023-01-10T15:58:45.532Z,9.05
2023-01-10T16:01:58.754Z,9.07
2023-01-10T16:05:17.950Z,9.07
2023-01-10T16:08:27.088Z,9.08
2023-01-10T16:11:57.509Z,9.09
2023-01-10T16:15:03.776Z,9.09
2023-01-10T16:18:09.843Z,9.08
2023-01-10T16:21:16.310Z,9.08
2023-01-10T16:24:24.230Z,9.09
2023-01-10T16:27:30.038Z,9.09
2023-01-10T16:30:40.663Z,9.09
2023-01-10T16:33:46.668Z,9.09
2023-01-10T16:36:52.541Z,9.09
2023-01-10T16:39:59.117Z,9.08
2023-01-10T16:43:21.846Z,9.07
2023-01-10T16:46:27.843Z,9.08
2023-01-10T16:49:33.607Z,9.09
2023-01-10T16:52:39.341Z,9.10
2023-01-10T16:55:47.038Z,9.10
2023-01-10T16:58:54.613Z,9.11
2023-01-10T17:02:01.242Z,9.12
2023-01-10T17:05:08.263Z,9.11
2023-01-10T17:08:18.429Z,9.12
2023-01-10T17:11:27.911Z,9.14
2023-01-10T17:14:36.450Z,9.14
2023-01-10T17:17:44.977Z,9.16
2023-01-10T17:20:51.295Z,9.19
2023-01-10T17:23:57.167Z,9.19
2023-01-10T17:27:02.893Z,9.18
2023-01-10T17:30:10.708Z,9.18
2023-01-10T17:33:16.465Z,9.19
2023-01-10T17:36:22.650Z,9.22
2023-01-10T17:39:28.807Z,9.25
2023-01-10T17:42:34.905Z,9.27
2023-01-10T17:45:43.518Z,9.30
2023-01-10T17:48:49.280Z,9.31
2023-01-10T17:51:55.287Z,9.33
2023-01-10T17:55:01.159Z,9.35
2023-01-10T17:58:06.896Z,9.36
2023-01-10T18:01:23.817Z,9.36
2023-01-10T18:04:30.914Z,9.37
2023-01-10T18:07:36.758Z,9.38
2023-01-10T18:10:42.611Z,9.40
2023-01-10T18:13:48.773Z,9.41
2023-01-10T18:16:54.811Z,9.43
2023-01-10T18:20:01.209Z,9.44
2023-01-10T18:23:22.497Z,9.43
2023-01-10T18:26:28.601Z,9.41
2023-01-10T18:29:34.646Z,9.38
2023-01-10T18:32:40.812Z,9.35
2023-01-10T18:35:48.829Z,9.31
2023-01-10T18:38:55.298Z,9.31
2023-01-10T18:42:01.378Z,9.31
2023-01-10T18:45:08.733Z,9.32
2023-01-10T18:48:16.475Z,9.35
2023-01-10T18:51:23.822Z,9.36
2023-01-10T18:54:29.900Z,9.39
2023-01-10T18:57:35.946Z,9.40
2023-01-10T19:00:43.012Z,9.41
2023-01-10T19:03:50.247Z,9.42
2023-01-10T19:06:56.945Z,9.44
2023-01-10T19:10:03.154Z,9.45
2023-01-10T19:13:09.154Z,9.47
2023-01-10T19:16:17.291Z,9.48
2023-01-10T19:19:25.969Z,9.50
2023-01-10T19:22:33.188Z,9.51
2023-01-10T19:25:39.324Z,9.52
2023-01-10T19:28:46.267Z,9.53
2023-01-10T19:31:52.853Z,9.52
2023-01-10T19:34:58.812Z,9.53
2023-01-10T19:38:05.167Z,9.54
2023-01-10T19:41:11.655Z,9.54
2023-01-10T19:44:19.235Z,9.55
2023-01-10T19:47:25.412Z,9.55
2023-01-10T19:50:31.427Z,9.55
2023-01-10T19:53:39.247Z,9.56
2023-01-10T19:56:45.375Z,9.54
2023-01-10T19:59:52.599Z,9.52
2023-01-10T20:02:58.957Z,9.51
2023-01-10T20:06:04.369Z,9.52
2023-01-10T20:09:13.137Z,9.49
2023-01-10T20:12:19.168Z,9.51
2023-01-10T20:15:27.530Z,9.52
2023-01-10T20:18:34.101Z,9.52
2023-01-10T20:21:41.452Z,9.52
2023-01-10T20:24:47.637Z,9.52
2023-01-10T20:27:53.816Z,9.51
2023-01-10T20:30:59.851Z,9.49
2023-01-10T20:34:06.060Z,9.48
2023-01-10T20:37:14.203Z,9.46
2023-01-10T20:40:22.920Z,9.44
2023-01-10T20:43:29.160Z,9.42
2023-01-10T20:46:36.833Z,9.41
2023-01-10T20:49:42.899Z,9.42
2023-01-10T20:52:49.032Z,9.42
2023-01-10T20:55:59.972Z,9.41
2023-01-10T20:59:06.787Z,9.43
2023-01-10T21:02:14.357Z,9.45
2023-01-10T21:05:20.635Z,9.47
2023-01-10T21:08:26.860Z,9.50
2023-01-10T21:11:38.820Z,9.52
2023-01-10T21:14:53.924Z,9.52
2023-01-10T21:17:59.980Z,9.53
2023-01-10T21:21:06.602Z,9.54
2023-01-10T21:24:13.522Z,9.55
2023-01-10T21:27:19.713Z,9.56
2023-01-10T21:30:27.044Z,9.57
2023-01-10T21:33:33.446Z,9.59
2023-01-10T21:36:37.938Z,9.61
2023-01-10T21:39:43.923Z,9.58
2023-01-10T21:42:50.044Z,9.59
2023-01-10T21:46:00.742Z,9.59
2023-01-10T21:49:07.438Z,9.59
2023-01-10T21:52:13.564Z,9.59
2023-01-10T21:55:19.652Z,9.60
2023-01-10T21:58:25.792Z,9.61
2023-01-10T22:01:31.992Z,9.62
2023-01-10T22:04:38.122Z,9.64
2023-01-10T22:07:46.101Z,9.65
2023-01-10T22:10:52.122Z,9.64
2023-01-10T22:13:58.379Z,9.64
2023-01-10T22:17:04.439Z,9.64
2023-01-10T22:20:13.413Z,9.65
2023-01-10T22:23:19.608Z,9.64
2023-01-10T22:26:25.543Z,9.62
2023-01-10T22:29:31.570Z,9.62
2023-01-10T22:32:37.588Z,9.63
2023-01-10T22:35:43.901Z,9.60
2023-01-10T22:38:48.974Z,9.57
2023-01-10T22:41:55.363Z,9.52
2023-01-10T22:45:01.459Z,9.54
2023-01-10T22:48:08.199Z,9.56
2023-01-10T22:51:14.618Z,9.57
2023-01-10T22:54:20.669Z,9.60
2023-01-10T22:57:28.729Z,9.62
2023-01-10T23:00:35.053Z,9.64
2023-01-10T23:03:41.232Z,9.65
2023-01-10T23:06:45.605Z,9.64
2023-01-10T23:09:51.820Z,9.58
2023-01-10T23:12:58.011Z,9.61
2023-01-10T23:16:03.481Z,9.61
2023-01-10T23:19:09.515Z,9.57
2023-01-10T23:22:16.112Z,9.59
2023-01-10T23:25:22.200Z,9.59
2023-01-10T23:28:28.129Z,9.57
2023-01-10T23:31:34.329Z,9.55
2023-01-10T23:34:40.519Z,9.53
2023-01-10T23:37:46.520Z,9.54
2023-01-10T23:40:52.557Z,9.55
2023-01-10T23:43:58.521Z,9.55
2023-01-10T23:47:04.531Z,9.54
2023-01-10T23:50:12.191Z,9.52
2023-01-10T23:53:19.286Z,9.47
2023-01-10T23:56:25.300Z,9.43
2023-01-10T23:59:31.243Z,9.43
